createdAt,value
2022-10-26T00:01:43.498Z,15.83
2022-10-26T00:04:15.744Z,15.79
2022-10-26T00:06:47.868Z,15.80
2022-10-26T00:09:20.054Z,15.83
2022-10-26T00:11:53.488Z,15.81
2022-10-26T00:14:25.903Z,15.82
2022-10-26T00:16:58.123Z,15.82
2022-10-26T00:19:30.662Z,15.81
2022-10-26T00:22:02.871Z,15.77
2022-10-26T00:24:35.225Z,15.72
2022-10-26T00:27:07.510Z,15.69
2022-10-26T00:29:39.685Z,15.71
2022-10-26T00:32:11.908Z,15.76
2022-10-26T00:34:44.099Z,15.80
2022-10-26T00:37:16.225Z,15.85
2022-10-26T00:39:48.500Z,15.86
2022-10-26T00:42:24.311Z,15.93
2022-10-26T00:45:02.187Z,15.94
2022-10-26T00:47:41.072Z,15.93
2022-10-26T00:50:19.667Z,15.92
2022-10-26T00:52:52.970Z,15.89
2022-10-26T00:55:30.830Z,15.86
2022-10-26T00:58:05.774Z,15.83
2022-10-26T01:00:38.217Z,15.81
2022-10-26T01:03:11.912Z,15.77
2022-10-26T01:05:47.079Z,15.78
2022-10-26T01:08:20.678Z,15.81
2022-10-26T01:10:53.353Z,15.85
2022-10-26T01:13:26.329Z,15.89
2022-10-26T01:16:09.255Z,15.90
2022-10-26T01:18:49.101Z,15.94
2022-10-26T01:21:42.104Z,15.95
2022-10-26T01:24:39.426Z,15.97
2022-10-26T01:27:25.108Z,15.97
2022-10-26T01:30:22.767Z,15.97
2022-10-26T01:33:18.827Z,15.97
2022-10-26T01:35:56.607Z,15.98
2022-10-26T01:38:36.320Z,15.99
2022-10-26T01:41:13.528Z,16.00
2022-10-26T01:43:51.956Z,16.00
2022-10-26T01:46:25.672Z,16.00
2022-10-26T01:49:03.059Z,16.02
2022-10-26T01:51:36.635Z,15.98
2022-10-26T01:54:08.917Z,16.01
2022-10-26T01:56:43.268Z,15.99
2022-10-26T01:59:28.094Z,16.00
2022-10-26T02:02:37.200Z,16.00
2022-10-26T02:05:24.955Z,16.00
2022-10-26T02:08:05.633Z,16.01
2022-10-26T02:10:50.286Z,16.05
2022-10-26T02:13:31.677Z,16.09
2022-10-26T02:16:14.288Z,16.12
2022-10-26T02:18:52.385Z,16.14
2022-10-26T02:21:29.314Z,16.16
2022-10-26T02:24:03.275Z,16.19
2022-10-26T02:26:37.382Z,16.18
2022-10-26T02:29:12.857Z,16.19
2022-10-26T02:31:48.182Z,16.19
2022-10-26T02:34:25.548Z,16.16
2022-10-26T02:37:02.315Z,16.16
2022-10-26T02:39:38.750Z,16.14
2022-10-26T02:42:14.755Z,16.12
2022-10-26T02:44:51.468Z,16.08
2022-10-26T02:47:24.837Z,16.01
2022-10-26T02:49:57.725Z,15.97
2022-10-26T02:52:37.165Z,15.94
2022-10-26T02:55:16.035Z,15.91
2022-10-26T02:57:52.763Z,15.90
2022-10-26T03:00:25.236Z,15.90
2022-10-26T03:02:59.864Z,15.90
2022-10-26T03:05:33.990Z,15.92
2022-10-26T03:08:06.764Z,15.96
2022-10-26T03:10:44.297Z,15.97
2022-10-26T03:13:16.782Z,15.96
2022-10-26T03:15:48.972Z,15.98
2022-10-26T03:18:21.202Z,16.00
2022-10-26T03:20:53.312Z,16.02
2022-10-26T03:23:25.623Z,16.04
2022-10-26T03:26:01.292Z,16.06
2022-10-26T03:28:31.770Z,16.08
2022-10-26T03:31:04.058Z,16.07
2022-10-26T03:36:13.723Z,16.10
2022-10-26T03:38:45.984Z,16.10
2022-10-26T03:41:18.139Z,16.08
2022-10-26T03:43:50.338Z,16.07
2022-10-26T03:46:22.556Z,16.08
2022-10-26T03:48:54.931Z,16.09
2022-10-26T03:51:28.270Z,16.08
2022-10-26T03:54:00.581Z,16.06
2022-10-26T03:56:32.758Z,16.05
2022-10-26T03:59:05.469Z,16.01
2022-10-26T04:01:37.728Z,15.95
2022-10-26T04:04:10.195Z,15.89
2022-10-26T04:06:42.666Z,15.86
2022-10-26T04:09:14.835Z,15.84
2022-10-26T04:11:47.032Z,15.83
2022-10-26T04:14:19.316Z,15.79
2022-10-26T04:16:51.518Z,15.77
2022-10-26T04:19:23.709Z,15.73
2022-10-26T04:21:55.858Z,15.71
2022-10-26T04:24:28.025Z,15.67
2022-10-26T04:27:00.193Z,15.62
2022-10-26T04:29:32.359Z,15.56
2022-10-26T04:32:04.588Z,15.52
2022-10-26T04:34:36.858Z,15.45
2022-10-26T04:37:09.067Z,15.40
2022-10-26T04:39:41.189Z,15.40
2022-10-26T04:42:13.669Z,15.37
2022-10-26T04:44:45.929Z,15.37
2022-10-26T04:47:18.131Z,15.33
2022-10-26T04:49:50.249Z,15.28
2022-10-26T04:52:22.425Z,15.17
2022-10-26T04:54:54.610Z,15.09
2022-10-26T04:57:26.836Z,15.03
2022-10-26T04:59:58.992Z,14.99
2022-10-26T05:02:31.753Z,14.94
2022-10-26T05:07:36.127Z,14.93
2022-10-26T05:10:10.208Z,14.92
2022-10-26T05:12:42.359Z,14.95
2022-10-26T05:15:15.431Z,15.01
2022-10-26T05:17:47.926Z,15.10
2022-10-26T05:20:20.522Z,15.16
2022-10-26T05:22:57.166Z,15.27
2022-10-26T05:25:30.443Z,15.41
2022-10-26T05:28:03.265Z,15.55
2022-10-26T05:30:35.690Z,15.72
2022-10-26T05:33:08.584Z,15.91
2022-10-26T05:35:41.132Z,16.20
2022-10-26T05:38:15.422Z,16.47
2022-10-26T05:40:55.407Z,16.70
2022-10-26T05:43:28.507Z,16.91
2022-10-26T05:46:00.740Z,17.10
2022-10-26T05:48:32.995Z,17.27
2022-10-26T05:51:05.377Z,17.39
2022-10-26T05:53:37.695Z,17.47
2022-10-26T05:56:18.563Z,17.56
2022-10-26T05:58:51.905Z,17.65
2022-10-26T06:01:35.777Z,17.75
2022-10-26T06:04:18.416Z,17.87
2022-10-26T06:06:54.888Z,17.96
2022-10-26T06:09:28.690Z,18.12
2022-10-26T06:12:02.699Z,18.25
2022-10-26T06:14:36.245Z,18.35
2022-10-26T06:17:22.541Z,18.46
2022-10-26T06:19:59.908Z,18.53
2022-10-26T06:22:45.661Z,18.64
2022-10-26T06:25:29.832Z,18.79
2022-10-26T06:28:15.870Z,18.78
2022-10-26T06:30:48.364Z,18.67
2022-10-26T06:33:30.326Z,18.69
2022-10-26T06:36:16.167Z,18.81
2022-10-26T06:38:49.556Z,18.98
2022-10-26T06:41:24.353Z,19.10
2022-10-26T06:43:57.640Z,19.30
2022-10-26T06:46:37.912Z,19.40
2022-10-26T06:49:21.114Z,19.37
2022-10-26T06:51:59.987Z,19.22
2022-10-26T06:54:46.901Z,19.12
2022-10-26T06:57:21.323Z,19.09
2022-10-26T06:59:56.064Z,19.10
2022-10-26T07:02:28.659Z,19.23
2022-10-26T07:05:01.588Z,19.35
2022-10-26T07:07:34.224Z,19.55
2022-10-26T07:10:07.408Z,19.79
2022-10-26T07:12:39.965Z,20.00
2022-10-26T07:15:12.861Z,20.21
2022-10-26T07:17:49.521Z,20.46
2022-10-26T07:20:25.074Z,20.70
2022-10-26T07:22:58.061Z,20.93
2022-10-26T07:25:30.663Z,21.15
2022-10-26T07:28:03.122Z,21.33
2022-10-26T07:30:35.335Z,21.49
2022-10-26T07:33:09.759Z,21.61
2022-10-26T07:35:42.568Z,21.80
2022-10-26T07:38:15.295Z,21.97
2022-10-26T07:40:47.407Z,22.13
2022-10-26T07:43:19.599Z,22.24
2022-10-26T07:45:53.466Z,22.27
2022-10-26T07:48:25.759Z,22.35
2022-10-26T07:50:58.039Z,22.51
2022-10-26T07:53:30.233Z,22.60
2022-10-26T07:56:02.413Z,22.66
2022-10-26T07:58:34.559Z,22.71
2022-10-26T08:01:11.474Z,22.88
2022-10-26T08:03:43.969Z,23.11
2022-10-26T08:06:16.064Z,23.24
2022-10-26T08:08:48.320Z,23.44
2022-10-26T08:11:20.914Z,23.74
2022-10-26T08:13:56.621Z,23.98
2022-10-26T08:16:28.891Z,23.98
2022-10-26T08:19:01.091Z,24.04
2022-10-26T08:21:39.754Z,24.11
2022-10-26T08:24:13.282Z,23.96
2022-10-26T08:26:45.725Z,23.78
2022-10-26T08:29:17.867Z,23.68
2022-10-26T08:31:51.852Z,23.50
2022-10-26T08:34:24.185Z,23.38
2022-10-26T08:36:56.254Z,23.14
2022-10-26T08:39:30.746Z,22.98
2022-10-26T08:42:07.654Z,22.77
2022-10-26T08:44:45.429Z,22.46
2022-10-26T08:47:22.165Z,22.37
2022-10-26T08:50:01.035Z,22.29
2022-10-26T08:52:39.584Z,22.16
2022-10-26T08:55:17.510Z,22.09
2022-10-26T08:57:51.606Z,22.02
2022-10-26T09:00:27.080Z,21.92
2022-10-26T09:03:00.008Z,22.08
2022-10-26T09:05:39.804Z,22.29
2022-10-26T09:08:22.149Z,22.21
2022-10-26T09:11:03.753Z,22.05
2022-10-26T09:13:43.532Z,21.89
2022-10-26T09:16:26.532Z,21.73
2022-10-26T09:19:16.151Z,21.68
2022-10-26T09:21:58.026Z,21.64
2022-10-26T09:24:34.317Z,21.77
2022-10-26T09:27:15.956Z,22.02
2022-10-26T09:29:49.928Z,22.26
2022-10-26T09:32:25.731Z,22.37
2022-10-26T09:35:01.441Z,22.54
2022-10-26T09:37:38.397Z,22.74
2022-10-26T09:40:17.561Z,22.87
2022-10-26T09:42:56.231Z,22.97
2022-10-26T09:45:34.111Z,23.12
2022-10-26T09:48:12.623Z,23.33
2022-10-26T09:50:49.757Z,23.53
2022-10-26T09:53:21.847Z,23.73
2022-10-26T09:56:03.469Z,23.77
2022-10-26T09:58:42.908Z,23.79
2022-10-26T10:01:30.247Z,23.79
2022-10-26T10:04:22.851Z,23.77
2022-10-26T10:07:13.297Z,23.73
2022-10-26T10:09:45.443Z,23.71
2022-10-26T10:12:23.700Z,23.73
2022-10-26T10:15:02.219Z,23.73
2022-10-26T10:17:34.951Z,23.65
2022-10-26T10:20:25.986Z,23.50
2022-10-26T10:23:03.690Z,23.39
2022-10-26T10:25:40.333Z,23.25
2022-10-26T10:28:24.793Z,23.07
2022-10-26T10:30:59.657Z,22.97
2022-10-26T10:33:40.699Z,22.86
2022-10-26T10:36:17.963Z,22.76
2022-10-26T10:38:52.799Z,22.87
2022-10-26T10:41:30.605Z,23.04
2022-10-26T10:44:10.151Z,23.18
2022-10-26T10:46:42.370Z,23.16
2022-10-26T10:49:25.135Z,23.08
2022-10-26T10:51:58.629Z,23.11
2022-10-26T10:54:34.374Z,23.20
2022-10-26T10:57:19.530Z,23.35
2022-10-26T11:00:05.783Z,23.46
2022-10-26T11:03:16.929Z,23.50
2022-10-26T11:05:59.347Z,23.53
2022-10-26T11:08:35.808Z,23.46
2022-10-26T11:11:13.581Z,23.37
2022-10-26T11:13:51.847Z,23.34
2022-10-26T11:16:27.675Z,23.28
2022-10-26T11:19:05.895Z,23.28
2022-10-26T11:21:39.714Z,23.26
2022-10-26T11:24:21.680Z,23.21
2022-10-26T11:26:56.851Z,23.13
2022-10-26T11:29:41.646Z,23.06
2022-10-26T11:32:22.053Z,22.98
2022-10-26T11:34:59.736Z,22.84
2022-10-26T11:37:38.700Z,22.76
2022-10-26T11:40:23.380Z,22.75
2022-10-26T11:43:06.860Z,22.71
2022-10-26T11:45:43.228Z,22.68
2022-10-26T11:48:20.955Z,22.66
2022-10-26T11:50:55.083Z,22.65
2022-10-26T11:53:31.914Z,22.59
2022-10-26T11:56:06.616Z,22.56
2022-10-26T11:58:40.239Z,22.57
2022-10-26T12:01:15.678Z,22.55
2022-10-26T12:03:48.317Z,22.49
2022-10-26T12:06:26.393Z,22.37
2022-10-26T12:09:04.403Z,22.27
2022-10-26T12:11:45.360Z,22.17
2022-10-26T12:14:25.098Z,22.12
2022-10-26T12:17:08.560Z,22.09
2022-10-26T12:19:49.419Z,22.06
2022-10-26T12:22:24.743Z,22.03
2022-10-26T12:25:21.497Z,22.05
2022-10-26T12:27:56.141Z,22.08
2022-10-26T12:30:31.472Z,22.07
2022-10-26T12:33:05.441Z,22.06
2022-10-26T12:35:45.887Z,22.06
2022-10-26T12:38:57.329Z,22.04
2022-10-26T12:41:30.494Z,22.02
2022-10-26T12:44:32.003Z,22.03
2022-10-26T12:47:04.585Z,22.02
2022-10-26T12:50:03.685Z,21.99
2022-10-26T12:52:54.295Z,21.99
2022-10-26T12:56:03.805Z,21.99
2022-10-26T12:59:14.436Z,21.99
2022-10-26T13:02:14.791Z,21.97
2022-10-26T13:05:24.007Z,21.97
2022-10-26T13:08:05.731Z,21.97
2022-10-26T13:10:41.955Z,21.95
2022-10-26T13:13:25.426Z,21.93
2022-10-26T13:15:59.404Z,21.94
2022-10-26T13:18:32.512Z,21.93
2022-10-26T13:21:09.920Z,21.91
2022-10-26T13:23:45.774Z,21.86
2022-10-26T13:26:19.574Z,21.84
2022-10-26T13:28:54.091Z,21.82
2022-10-26T13:31:59.621Z,21.79
2022-10-26T13:34:33.228Z,21.78
2022-10-26T13:37:19.075Z,21.77
2022-10-26T13:39:56.060Z,21.76
2022-10-26T13:45:10.931Z,21.75
2022-10-26T13:47:49.788Z,21.75
2022-10-26T13:50:27.607Z,21.75
2022-10-26T13:53:12.195Z,21.76
2022-10-26T13:55:54.328Z,21.75
2022-10-26T13:58:34.962Z,21.74
2022-10-26T14:01:18.262Z,21.74
2022-10-26T14:03:50.947Z,21.71
2022-10-26T14:06:28.136Z,21.67
2022-10-26T14:09:04.419Z,21.61
2022-10-26T14:11:44.630Z,21.56
2022-10-26T14:14:20.188Z,21.54
2022-10-26T14:16:51.456Z,21.54
2022-10-26T14:19:28.412Z,21.53
2022-10-26T14:22:01.289Z,21.52
2022-10-26T14:24:52.853Z,21.50
2022-10-26T14:27:26.925Z,21.48
2022-10-26T14:30:21.005Z,21.47
2022-10-26T14:32:52.374Z,21.45
2022-10-26T14:35:29.977Z,21.45
2022-10-26T14:38:04.631Z,21.41
2022-10-26T14:40:38.238Z,21.38
2022-10-26T14:43:18.238Z,21.36
2022-10-26T14:45:56.908Z,21.34
2022-10-26T14:48:33.524Z,21.33
2022-10-26T14:51:10.211Z,21.29
2022-10-26T14:53:49.169Z,21.26
2022-10-26T14:56:25.923Z,21.23
2022-10-26T14:58:59.504Z,21.19
2022-10-26T15:01:48.469Z,21.15
2022-10-26T15:04:32.074Z,21.10
2022-10-26T15:07:17.907Z,21.06
2022-10-26T15:09:51.150Z,21.01
2022-10-26T15:12:32.970Z,20.98
2022-10-26T15:17:55.864Z,20.90
2022-10-26T15:20:31.013Z,20.86
2022-10-26T15:23:04.785Z,20.82
2022-10-26T15:25:37.898Z,20.74
2022-10-26T15:28:23.180Z,20.68
2022-10-26T15:31:07.233Z,20.59
2022-10-26T15:33:41.171Z,20.52
2022-10-26T15:36:21.175Z,20.46
2022-10-26T15:38:54.054Z,20.39
2022-10-26T15:41:28.829Z,20.32
2022-10-26T15:44:06.143Z,20.25
2022-10-26T15:46:39.896Z,20.18
2022-10-26T15:49:19.517Z,20.09
2022-10-26T15:51:51.998Z,20.01
2022-10-26T15:54:24.203Z,19.92
2022-10-26T15:56:56.917Z,19.86
2022-10-26T15:59:29.233Z,19.80
2022-10-26T16:02:01.468Z,19.73
2022-10-26T16:04:34.030Z,19.67
2022-10-26T16:07:07.698Z,19.61
2022-10-26T16:09:41.030Z,19.54
2022-10-26T16:12:14.988Z,19.49
2022-10-26T16:15:04.392Z,19.42
2022-10-26T16:17:37.498Z,19.37
2022-10-26T16:20:14.220Z,19.30
2022-10-26T16:22:48.500Z,19.24
2022-10-26T16:25:23.353Z,19.18
2022-10-26T16:27:56.721Z,19.11
2022-10-26T16:30:30.625Z,19.04
2022-10-26T16:33:02.966Z,18.97
2022-10-26T16:35:35.329Z,18.92
2022-10-26T16:38:07.541Z,18.88
2022-10-26T16:40:42.754Z,18.84
2022-10-26T16:43:15.016Z,18.80
2022-10-26T16:45:47.536Z,18.75
2022-10-26T16:48:19.706Z,18.72
2022-10-26T16:50:51.942Z,18.69
2022-10-26T16:53:24.664Z,18.66
2022-10-26T16:56:02.606Z,18.62
2022-10-26T16:58:36.853Z,18.58
2022-10-26T17:01:11.101Z,18.54
2022-10-26T17:03:43.445Z,18.49
2022-10-26T17:06:16.047Z,18.46
2022-10-26T17:08:48.254Z,18.43
2022-10-26T17:11:22.604Z,18.40
2022-10-26T17:13:57.708Z,18.38
2022-10-26T17:16:29.934Z,18.35
2022-10-26T17:19:02.339Z,18.32
2022-10-26T17:21:36.461Z,18.29
2022-10-26T17:24:09.312Z,18.27
2022-10-26T17:26:41.834Z,18.24
2022-10-26T17:29:15.625Z,18.23
2022-10-26T17:31:47.865Z,18.23
2022-10-26T17:34:20.118Z,18.20
2022-10-26T17:36:52.251Z,18.19
2022-10-26T17:39:24.409Z,18.19
2022-10-26T17:41:56.569Z,18.19
2022-10-26T17:44:29.390Z,18.21
2022-10-26T17:47:01.498Z,18.21
2022-10-26T17:49:36.310Z,18.21
2022-10-26T17:52:08.870Z,18.19
2022-10-26T17:54:41.012Z,18.19
2022-10-26T17:57:13.178Z,18.19
2022-10-26T17:59:45.286Z,18.20
2022-10-26T18:02:17.581Z,18.21
2022-10-26T18:04:49.752Z,18.22
2022-10-26T18:07:21.863Z,18.22
2022-10-26T18:09:54.012Z,18.23
2022-10-26T18:12:26.559Z,18.24
2022-10-26T18:14:58.665Z,18.24
2022-10-26T18:17:30.787Z,18.23
2022-10-26T18:20:02.977Z,18.21
2022-10-26T18:22:35.227Z,18.21
2022-10-26T18:25:08.253Z,18.21
2022-10-26T18:27:40.423Z,18.20
2022-10-26T18:30:14.538Z,18.16
2022-10-26T18:32:46.960Z,18.14
2022-10-26T18:35:19.851Z,18.13
2022-10-26T18:37:52.152Z,18.14
2022-10-26T18:40:24.615Z,18.14
2022-10-26T18:42:56.764Z,18.14
2022-10-26T18:45:28.903Z,18.14
2022-10-26T18:48:01.060Z,18.13
2022-10-26T18:50:33.279Z,18.12
2022-10-26T18:53:12.877Z,18.11
2022-10-26T18:55:45.735Z,18.11
2022-10-26T18:58:17.884Z,18.10
2022-10-26T19:00:52.204Z,18.08
2022-10-26T19:03:24.454Z,18.07
2022-10-26T19:05:56.620Z,18.07
2022-10-26T19:08:28.773Z,18.06
2022-10-26T19:11:05.612Z,18.07
2022-10-26T19:13:37.931Z,18.06
2022-10-26T19:16:17.201Z,18.06
2022-10-26T19:18:59.793Z,18.07
2022-10-26T19:21:32.749Z,18.09
2022-10-26T19:24:05.266Z,18.11
2022-10-26T19:26:41.090Z,18.15
2022-10-26T19:29:17.147Z,18.16
2022-10-26T19:31:52.184Z,18.20
2022-10-26T19:34:24.758Z,18.22
2022-10-26T19:36:56.948Z,18.23
2022-10-26T19:39:29.100Z,18.26
2022-10-26T19:42:01.269Z,18.28
2022-10-26T19:44:33.423Z,18.29
2022-10-26T19:47:05.837Z,18.31
2022-10-26T19:49:37.999Z,18.32
2022-10-26T19:52:10.253Z,18.34
2022-10-26T19:54:42.427Z,18.32
2022-10-26T19:57:14.625Z,18.31
2022-10-26T19:59:46.831Z,18.30
2022-10-26T20:02:19.028Z,18.29
2022-10-26T20:04:51.156Z,18.28
2022-10-26T20:07:23.263Z,18.26
2022-10-26T20:09:55.386Z,18.24
2022-10-26T20:12:27.903Z,18.24
2022-10-26T20:15:00.211Z,18.23
2022-10-26T20:17:35.458Z,18.21
2022-10-26T20:20:09.390Z,18.20
2022-10-26T20:22:41.549Z,18.18
2022-10-26T20:25:13.807Z,18.13
2022-10-26T20:27:48.919Z,18.11
2022-10-26T20:30:21.851Z,18.07
2022-10-26T20:32:54.014Z,18.05
2022-10-26T20:35:26.487Z,18.00
2022-10-26T20:37:59.570Z,17.97
2022-10-26T20:40:33.284Z,17.93
2022-10-26T20:43:06.507Z,17.87
2022-10-26T20:45:39.923Z,17.85
2022-10-26T20:48:17.412Z,17.80
2022-10-26T20:50:54.785Z,17.76
2022-10-26T20:53:35.925Z,17.71
2022-10-26T20:56:16.291Z,17.65
2022-10-26T20:58:52.165Z,17.60
2022-10-26T21:01:30.843Z,17.55
2022-10-26T21:04:04.669Z,17.51
2022-10-26T21:06:40.396Z,17.48
2022-10-26T21:09:12.736Z,17.43
2022-10-26T21:11:45.617Z,17.39
2022-10-26T21:14:17.843Z,17.37
2022-10-26T21:16:50.407Z,17.36
2022-10-26T21:19:22.586Z,17.35
2022-10-26T21:21:54.712Z,17.35
2022-10-26T21:24:26.941Z,17.36
2022-10-26T21:26:59.151Z,17.37
2022-10-26T21:29:31.380Z,17.37
2022-10-26T21:32:03.764Z,17.38
2022-10-26T21:34:35.901Z,17.39
2022-10-26T21:37:08.082Z,17.39
2022-10-26T21:39:40.271Z,17.41
2022-10-26T21:42:12.437Z,17.41
2022-10-26T21:44:45.130Z,17.41
2022-10-26T21:47:17.541Z,17.41
2022-10-26T21:49:49.756Z,17.42
2022-10-26T21:52:22.260Z,17.41
2022-10-26T21:54:54.448Z,17.39
2022-10-26T21:57:26.563Z,17.37
2022-10-26T21:59:58.720Z,17.36
2022-10-26T22:02:30.865Z,17.32
2022-10-26T22:05:03.084Z,17.30
2022-10-26T22:07:35.259Z,17.27
2022-10-26T22:10:10.956Z,17.25
2022-10-26T22:12:43.552Z,17.21
2022-10-26T22:15:15.933Z,17.16
2022-10-26T22:17:48.286Z,17.10
2022-10-26T22:20:22.255Z,17.03
2022-10-26T22:22:54.547Z,16.98
2022-10-26T22:25:27.543Z,16.93
2022-10-26T22:27:59.769Z,16.87
2022-10-26T22:30:31.907Z,16.82
2022-10-26T22:33:04.036Z,16.77
2022-10-26T22:35:36.139Z,16.69
2022-10-26T22:38:08.305Z,16.64
2022-10-26T22:40:40.443Z,16.59
2022-10-26T22:43:12.574Z,16.55
2022-10-26T22:45:44.762Z,16.52
2022-10-26T22:48:16.974Z,16.48
2022-10-26T22:50:49.198Z,16.45
2022-10-26T22:53:21.419Z,16.41
2022-10-26T22:55:53.613Z,16.38
2022-10-26T22:58:25.780Z,16.35
2022-10-26T23:01:04.587Z,16.31
2022-10-26T23:03:37.882Z,16.29
2022-10-26T23:06:12.367Z,16.24
2022-10-26T23:08:45.039Z,16.20
2022-10-26T23:11:19.604Z,16.16
2022-10-26T23:13:55.460Z,16.12
2022-10-26T23:16:28.351Z,16.08
2022-10-26T23:19:01.015Z,16.04
2022-10-26T23:21:33.242Z,15.98
2022-10-26T23:24:06.075Z,15.93
2022-10-26T23:26:38.239Z,15.91
2022-10-26T23:29:10.477Z,15.89
2022-10-26T23:31:42.739Z,15.85
2022-10-26T23:34:15.118Z,15.80
2022-10-26T23:36:48.152Z,15.77
2022-10-26T23:39:20.444Z,15.75
2022-10-26T23:41:52.622Z,15.74
2022-10-26T23:44:24.863Z,15.73
2022-10-26T23:46:57.016Z,15.72
2022-10-26T23:49:29.350Z,15.72
2022-10-26T23:52:02.472Z,15.72
2022-10-26T23:54:34.701Z,15.71
2022-10-26T23:57:07.412Z,15.71
2022-10-26T23:59:39.552Z,15.69
